Time;durP1;ratioP1;P1;durP2;ratioP2;P2;SDS_P1;SDS_P2;PMS_P1;PMS_P2;Temp;Humidity;BMP_temperature;BMP_pressure;BME280_temperature;BME280_humidity;BME280_pressure;Samples;Min_cycle;Max_cycle;Signal;HPM_P1;HPM_P2
2022/09/02 00:00:20;;;;;;;3.75;1.02;;;;;;;16.36;48.95;101597.88;5044372;28;20025;-77
2022/09/02 00:02:48;;;;;;;1.88;1.10;;;;;;;16.36;49.15;101597.03;5043759;28;20071;-77
2022/09/02 00:05:13;;;;;;;1.88;1.10;;;;;;;16.36;49.06;101591.78;5041541;28;20029;-76
2022/09/02 00:07:38;;;;;;;1.80;1.10;;;;;;;16.33;49.00;101591.88;5046705;28;20029;-76
2022/09/02 00:10:04;;;;;;;2.30;1.20;;;;;;;16.31;49.17;101591.09;5047349;28;20032;-76
2022/09/02 00:12:29;;;;;;;2.65;1.10;;;;;;;16.28;49.51;101588.56;5034026;28;20037;-76
2022/09/02 00:14:54;;;;;;;1.98;1.20;;;;;;;16.26;49.18;101590.38;5038530;28;20055;-76
2022/09/02 00:17:20;;;;;;;2.13;1.17;;;;;;;16.23;49.35;101589.59;5040779;28;20021;-76
2022/09/02 00:19:45;;;;;;;1.73;1.10;;;;;;;16.20;49.39;101587.09;5046673;28;20044;-76
2022/09/02 00:22:10;;;;;;;3.58;1.10;;;;;;;16.18;49.70;101581.06;5043824;28;20468;-76
2022/09/02 00:24:36;;;;;;;2.63;1.10;;;;;;;16.15;49.65;101580.28;5046732;28;20024;-76
2022/09/02 00:27:01;;;;;;;1.73;1.23;;;;;;;16.12;50.19;101581.28;5049148;28;20118;-76
2022/09/02 00:29:27;;;;;;;2.00;1.15;;;;;;;16.10;49.93;101580.47;5051862;28;20020;-76
2022/09/02 00:31:53;;;;;;;2.20;1.08;;;;;;;16.06;51.17;101579.72;5035908;28;20049;-76
2022/09/02 00:34:19;;;;;;;1.50;1.00;;;;;;;16.06;49.94;101577.09;5037655;28;20484;-76
2022/09/02 00:36:45;;;;;;;2.10;1.13;;;;;;;16.04;50.16;101578.09;5038862;28;20483;-76
2022/09/02 00:39:10;;;;;;;2.35;1.20;;;;;;;16.02;50.18;101566.78;5046704;28;20038;-77
2022/09/02 00:41:38;;;;;;;2.95;1.20;;;;;;;15.98;50.31;101570.44;5044993;28;20125;-76
2022/09/02 00:44:06;;;;;;;2.95;1.20;;;;;;;15.93;50.37;101563.56;5048565;28;20039;-77
2022/09/02 00:46:32;;;;;;;1.75;1.05;;;;;;;15.91;50.42;101565.41;5044279;28;20460;-76
2022/09/02 00:49:04;;;;;;;4.60;1.38;;;;;;;15.87;50.41;101553.31;5046805;28;20034;-76
2022/09/02 00:51:38;;;;;;;3.63;1.30;;;;;;;15.82;50.59;101560.47;5037770;28;20107;-76
2022/09/02 00:54:05;;;;;;;2.55;1.00;;;;;;;15.80;50.71;101559.66;5038447;28;20040;-76
2022/09/02 00:56:31;;;;;;;2.80;1.10;;;;;;;15.78;50.80;101556.22;5039241;28;20456;-76
2022/09/02 00:58:59;;;;;;;3.00;1.20;;;;;;;15.77;51.05;101549.28;5041124;28;20025;-77
2022/09/02 01:01:24;;;;;;;2.85;1.35;;;;;;;15.74;50.99;101557.25;5046670;28;20068;-77
2022/09/02 01:03:50;;;;;;;2.05;1.20;;;;;;;15.73;51.03;101550.28;5040994;28;20044;-76
2022/09/02 01:06:20;;;;;;;3.10;1.20;;;;;;;15.69;51.23;101554.78;5047541;28;20108;-76
2022/09/02 01:08:53;;;;;;;3.53;1.27;;;;;;;15.68;51.14;101552.25;5058917;28;20107;-76
2022/09/02 01:11:20;;;;;;;3.35;1.33;;;;;;;15.67;51.06;101555.78;5045062;28;20375;-76
2022/09/02 01:13:45;;;;;;;3.97;1.23;;;;;;;15.66;51.23;101551.44;5047660;28;20029;-77
2022/09/02 01:16:22;;;;;;;2.80;1.30;;;;;;;15.62;50.93;101548.91;5046044;28;20472;-76
2022/09/02 01:18:51;;;;;;;3.25;1.35;;;;;;;15.59;51.59;101549.03;5052881;28;20431;-76
2022/09/02 01:21:17;;;;;;;4.40;1.40;;;;;;;15.56;51.34;101546.50;5050442;28;20485;-76
2022/09/02 01:23:43;;;;;;;3.47;1.30;;;;;;;15.55;51.37;101552.66;5042970;28;20468;-76
2022/09/02 01:26:09;;;;;;;2.47;1.27;;;;;;;15.53;51.52;101554.50;5041917;28;20036;-76
2022/09/02 01:28:35;;;;;;;2.38;1.33;;;;;;;15.50;51.95;101553.72;5045235;28;20032;-77
2022/09/02 01:31:00;;;;;;;3.53;1.30;;;;;;;15.46;51.59;101548.59;5039578;28;20066;-77
2022/09/02 01:33:27;;;;;;;1.40;1.13;;;;;;;15.46;51.62;101553.00;5039456;28;20442;-76
2022/09/02 01:35:52;;;;;;;1.77;1.20;;;;;;;15.43;52.21;101542.59;5044453;28;20021;-76
2022/09/02 01:38:19;;;;;;;2.00;1.33;;;;;;;15.41;51.96;101544.41;5042955;28;20036;-76
2022/09/02 01:40:44;;;;;;;1.52;1.23;;;;;;;15.37;51.98;101540.22;5022886;28;20396;-76
2022/09/02 01:43:13;;;;;;;2.75;1.20;;;;;;;15.35;52.02;101535.00;5042979;28;20036;-76
2022/09/02 01:45:41;;;;;;;2.72;1.30;;;;;;;15.33;52.13;101540.31;5042207;28;20388;-77
2022/09/02 01:48:07;;;;;;;1.90;1.50;;;;;;;15.29;52.33;101541.31;5038712;28;20074;-76
2022/09/02 01:50:35;;;;;;;3.13;1.30;;;;;;;15.26;52.09;101538.81;5041113;28;20050;-76
2022/09/02 01:53:02;;;;;;;2.10;1.30;;;;;;;15.23;52.22;101533.66;5042640;28;20021;-76
2022/09/02 01:55:28;;;;;;;3.63;1.15;;;;;;;15.21;52.31;101537.25;5040408;28;20021;-76
2022/09/02 01:57:54;;;;;;;3.63;1.48;;;;;;;15.19;52.47;101529.44;5035564;28;20069;-76
2022/09/02 02:00:21;;;;;;;2.33;1.30;;;;;;;15.17;52.43;101533.88;5037375;28;20063;-76
2022/09/02 02:02:46;;;;;;;3.50;1.17;;;;;;;15.15;52.60;101533.91;5044465;28;20021;-76
2022/09/02 02:05:12;;;;;;;3.53;1.38;;;;;;;15.13;52.68;101534.88;5042281;28;20480;-76
2022/09/02 02:07:39;;;;;;;1.73;1.10;;;;;;;15.10;52.75;101529.75;5045289;28;20037;-76
2022/09/02 02:10:06;;;;;;;4.50;1.20;;;;;;;15.06;52.79;101533.38;5044920;28;20065;-76
2022/09/02 02:12:32;;;;;;;4.47;1.40;;;;;;;15.05;53.10;101536.91;5022918;28;20021;-76
2022/09/02 02:15:00;;;;;;;4.90;1.40;;;;;;;15.02;52.93;101533.50;5037092;28;20097;-76
2022/09/02 02:17:26;;;;;;;2.97;1.30;;;;;;;15.00;52.92;101535.31;5038500;28;20036;-76
2022/09/02 02:19:51;;;;;;;2.50;1.40;;;;;;;14.98;53.15;101533.63;5039708;28;20020;-76
2022/09/02 02:22:16;;;;;;;2.47;1.30;;;;;;;14.95;53.05;101531.97;5042853;28;21453;-74
2022/09/02 02:24:42;;;;;;;2.50;1.45;;;;;;;14.90;53.22;101531.25;5042795;28;20025;-76
2022/09/02 02:27:07;;;;;;;1.83;1.20;;;;;;;14.87;53.33;101526.13;5048413;28;20138;-76
2022/09/02 02:29:33;;;;;;;5.13;1.40;;;;;;;14.85;53.27;101535.81;5036376;28;20120;-76
2022/09/02 02:31:58;;;;;;;2.50;1.20;;;;;;;14.85;53.48;101525.34;5037049;28;20053;-76
2022/09/02 02:34:24;;;;;;;2.90;1.40;;;;;;;14.82;53.37;101521.03;5022598;28;20045;-76
2022/09/02 02:36:49;;;;;;;1.40;1.20;;;;;;;14.81;53.45;101528.97;5043787;28;20037;-77
2022/09/02 02:39:14;;;;;;;2.97;1.50;;;;;;;14.79;53.42;101528.16;5044436;28;20028;-76
2022/09/02 02:41:40;;;;;;;4.47;1.42;;;;;;;14.77;53.72;101527.34;5040262;28;20418;-76
2022/09/02 02:44:07;;;;;;;2.13;1.45;;;;;;;14.75;53.84;101523.91;5041649;28;20563;-76
2022/09/02 02:46:34;;;;;;;2.47;1.48;;;;;;;14.73;53.60;101521.34;5040914;28;20082;-76
2022/09/02 02:49:00;;;;;;;1.73;1.30;;;;;;;14.70;53.48;101517.03;5036796;28;20033;-76
2022/09/02 02:51:25;;;;;;;1.92;1.40;;;;;;;14.67;53.97;101519.75;5040563;28;20021;-76
2022/09/02 02:53:51;;;;;;;4.95;1.80;;;;;;;14.67;53.84;101526.75;5042343;28;20035;-76
2022/09/02 02:56:16;;;;;;;4.57;1.50;;;;;;;14.64;53.91;101517.22;5037229;28;20729;-76
2022/09/02 02:58:41;;;;;;;2.20;1.50;;;;;;;14.62;54.03;101524.28;5040623;28;20346;-76
2022/09/02 03:01:07;;;;;;;2.58;1.52;;;;;;;14.62;54.16;101518.16;5040214;28;20134;-76
2022/09/02 03:03:32;;;;;;;2.40;1.60;;;;;;;14.59;54.08;101521.75;5041320;28;20384;-76
2022/09/02 03:05:58;;;;;;;4.53;1.75;;;;;;;14.58;54.25;101520.03;5039865;28;20051;-76
2022/09/02 03:08:25;;;;;;;2.30;1.52;;;;;;;14.55;54.50;101517.50;5036063;28;20129;-76
2022/09/02 03:10:53;;;;;;;2.72;1.70;;;;;;;14.53;54.33;101520.19;5024998;28;20430;-76
2022/09/02 03:13:20;;;;;;;2.63;1.55;;;;;;;14.51;54.44;101518.53;5038440;28;20044;-76
2022/09/02 03:15:45;;;;;;;2.50;1.45;;;;;;;14.48;54.51;101510.78;5038359;28;20107;-79
2022/09/02 03:18:10;;;;;;;4.13;1.67;;;;;;;14.45;54.57;101511.69;5038970;28;20112;-75
2022/09/02 03:20:35;;;;;;;4.60;1.50;;;;;;;14.44;54.63;101510.00;5040490;28;20049;-76
2022/09/02 03:23:02;;;;;;;2.15;1.30;;;;;;;14.42;54.57;101507.44;5041287;28;20029;-77
2022/09/02 03:25:29;;;;;;;3.25;1.50;;;;;;;14.40;54.69;101511.84;5044776;28;20029;-74
2022/09/02 03:27:54;;;;;;;5.82;1.52;;;;;;;14.36;54.64;101502.38;5042823;28;20055;-77
2022/09/02 03:30:24;;;;;;;2.80;1.70;;;;;;;14.34;54.82;101506.81;5039947;28;20424;-77
2022/09/02 03:32:50;;;;;;;3.33;1.55;;;;;;;14.33;55.23;101506.84;5040438;28;20037;-77
2022/09/02 03:35:17;;;;;;;2.03;1.52;;;;;;;14.33;55.41;101507.72;5035578;28;20028;-76
2022/09/02 03:37:44;;;;;;;5.00;2.00;;;;;;;14.35;54.91;101508.50;5040699;28;20044;-77
2022/09/02 03:40:12;;;;;;;3.10;1.50;;;;;;;14.34;55.00;101498.09;5044485;28;20016;-74
2022/09/02 03:42:38;;;;;;;3.50;1.60;;;;;;;14.33;55.08;101496.38;5048131;28;20033;-74
2022/09/02 03:45:06;;;;;;;2.83;1.58;;;;;;;14.29;54.97;101500.88;5049228;28;20025;-74
2022/09/02 03:47:32;;;;;;;3.42;1.58;;;;;;;14.27;55.10;101495.66;5051282;28;20056;-74
2022/09/02 03:49:58;;;;;;;2.35;1.55;;;;;;;14.25;55.03;101496.63;5050938;28;20475;-74
2022/09/02 03:52:24;;;;;;;3.20;1.45;;;;;;;14.22;55.33;101496.72;5050111;28;20094;-74
2022/09/02 03:54:50;;;;;;;2.25;1.60;;;;;;;14.22;55.50;101488.88;5050334;28;20025;-74
2022/09/02 03:57:15;;;;;;;3.25;1.50;;;;;;;14.21;55.50;101487.16;5051171;28;20025;-74
2022/09/02 03:59:40;;;;;;;2.55;1.92;;;;;;;14.19;55.51;101486.34;5051202;28;20036;-74
2022/09/02 04:02:06;;;;;;;2.47;1.67;;;;;;;14.19;55.53;101483.72;5049805;28;20031;-74
2022/09/02 04:04:32;;;;;;;2.47;1.50;;;;;;;14.18;56.18;101482.00;5049713;28;20451;-74
2022/09/02 04:06:58;;;;;;;4.63;1.50;;;;;;;14.19;55.58;101488.94;5051156;28;20029;-74
2022/09/02 04:09:24;;;;;;;3.78;1.60;;;;;;;14.19;55.40;101483.72;5049210;28;20377;-74
2022/09/02 04:11:49;;;;;;;2.60;1.40;;;;;;;14.19;55.49;101489.81;5049482;28;20040;-74
2022/09/02 04:14:15;;;;;;;3.75;1.50;;;;;;;14.19;55.52;101474.13;5050386;28;20365;-74
2022/09/02 04:16:40;;;;;;;3.30;1.40;;;;;;;14.21;55.46;101481.91;5050841;28;20021;-74
2022/09/02 04:19:08;;;;;;;2.78;1.50;;;;;;;14.20;55.47;101477.59;5050158;28;20044;-74
2022/09/02 04:21:36;;;;;;;3.38;1.40;;;;;;;14.19;55.64;101478.47;5032689;28;20078;-74
2022/09/02 04:24:03;;;;;;;2.17;1.40;;;;;;;14.19;55.73;101478.47;5050187;28;20420;-74
2022/09/02 04:26:28;;;;;;;3.30;1.42;;;;;;;14.18;55.60;101476.78;5049818;28;20503;-74
2022/09/02 04:28:54;;;;;;;3.92;1.50;;;;;;;14.16;55.64;101468.97;5051075;28;20024;-74
2022/09/02 04:31:21;;;;;;;3.25;1.60;;;;;;;14.17;55.86;101480.31;5052205;28;20056;-74
2022/09/02 04:33:47;;;;;;;2.80;1.50;;;;;;;14.18;55.96;101471.53;5053106;28;20468;-74
2022/09/02 04:36:15;;;;;;;2.03;1.40;;;;;;;14.18;55.99;101474.16;5052615;28;20044;-74
2022/09/02 04:38:40;;;;;;;2.80;1.42;;;;;;;14.19;55.91;101465.41;5068724;28;20104;-74
2022/09/02 04:41:15;;;;;;;2.95;1.55;;;;;;;14.20;55.73;101470.59;5054725;28;20087;-75
2022/09/02 04:43:41;;;;;;;5.20;1.50;;;;;;;14.23;56.21;101464.41;5057542;28;20025;-73
2022/09/02 04:46:08;;;;;;;4.22;1.60;;;;;;;14.23;55.96;101467.91;5051289;28;20460;-74
2022/09/02 04:48:35;;;;;;;4.30;1.55;;;;;;;14.26;55.84;101469.56;5050394;28;20143;-74
2022/09/02 04:51:11;;;;;;;2.47;1.45;;;;;;;14.28;55.50;101467.75;5051284;28;20055;-74
2022/09/02 04:53:37;;;;;;;1.83;1.30;;;;;;;14.29;56.07;101466.84;5053877;28;20067;-75
2022/09/02 04:56:08;;;;;;;2.33;1.50;;;;;;;14.30;55.97;101470.31;5051474;28;20020;-75
2022/09/02 04:58:35;;;;;;;3.05;1.30;;;;;;;14.31;56.79;101478.13;5052126;28;20029;-74
2022/09/02 05:01:14;;;;;;;2.08;1.58;;;;;;;14.30;55.56;101468.56;5053505;28;21469;-74
2022/09/02 05:03:40;;;;;;;1.73;1.30;;;;;;;14.31;56.17;101465.03;5051505;28;20021;-74
2022/09/02 05:06:08;;;;;;;3.05;1.30;;;;;;;14.33;56.12;101464.97;5054374;28;20107;-74
2022/09/02 05:08:35;;;;;;;2.10;1.48;;;;;;;14.33;56.26;101471.09;5053474;28;20031;-74
2022/09/02 05:11:04;;;;;;;2.80;1.65;;;;;;;14.35;56.27;101473.66;5034469;28;20079;-74
2022/09/02 05:13:30;;;;;;;4.78;1.60;;;;;;;14.36;56.20;101473.56;5052795;28;20121;-74
2022/09/02 05:15:55;;;;;;;3.30;1.50;;;;;;;14.39;56.28;101475.25;5054289;28;20475;-74
2022/09/02 05:18:20;;;;;;;1.60;1.20;;;;;;;14.40;56.41;101472.59;5053150;28;20024;-74
2022/09/02 05:20:46;;;;;;;4.13;1.35;;;;;;;14.43;56.07;101474.28;5051611;28;20403;-74
2022/09/02 05:23:12;;;;;;;4.05;1.45;;;;;;;14.45;56.28;101476.81;5054176;28;20025;-74
2022/09/02 05:25:38;;;;;;;2.83;1.60;;;;;;;14.47;56.00;101472.41;5054012;28;20036;-74
2022/09/02 05:28:05;;;;;;;3.30;1.50;;;;;;;14.50;56.12;101467.06;5053172;28;20037;-74
2022/09/02 05:30:30;;;;;;;4.35;1.48;;;;;;;14.54;55.91;101469.53;5051929;28;20041;-74
2022/09/02 05:32:56;;;;;;;2.30;1.35;;;;;;;14.57;56.01;101464.22;5053048;28;20013;-74
2022/09/02 05:35:21;;;;;;;3.60;1.45;;;;;;;14.61;56.13;101474.56;5052801;28;20100;-74
2022/09/02 05:37:47;;;;;;;3.38;1.50;;;;;;;14.65;56.20;101471.81;5052354;28;20040;-74
2022/09/02 05:40:12;;;;;;;3.20;1.52;;;;;;;14.69;56.25;101472.59;5053036;28;20500;-74
2022/09/02 05:42:38;;;;;;;4.28;1.42;;;;;;;14.71;56.22;101471.63;5049999;28;20480;-74
2022/09/02 05:45:05;;;;;;;3.03;1.38;;;;;;;14.74;55.90;101475.91;5035804;28;20384;-74
2022/09/02 05:47:32;;;;;;;2.45;1.50;;;;;;;14.76;56.26;101474.13;5050900;28;20035;-74
2022/09/02 05:50:00;;;;;;;4.30;1.27;;;;;;;14.80;56.08;101478.31;5053633;28;20021;-74
2022/09/02 05:52:26;;;;;;;4.78;1.58;;;;;;;14.82;55.65;101478.28;5034046;28;20044;-74
2022/09/02 05:54:53;;;;;;;3.58;1.50;;;;;;;14.83;55.87;101472.97;5052465;28;20091;-74
2022/09/02 05:57:19;;;;;;;4.43;1.40;;;;;;;14.88;56.10;101472.81;5052624;28;20044;-74
2022/09/02 05:59:45;;;;;;;4.20;1.70;;;;;;;14.93;56.19;101477.94;5052554;28;20029;-74
2022/09/02 06:02:12;;;;;;;3.00;1.50;;;;;;;14.95;55.83;101473.47;5048299;28;20464;-74
2022/09/02 06:04:43;;;;;;;3.75;1.40;;;;;;;14.98;55.63;101471.63;5049716;28;20021;-74
2022/09/02 06:07:09;;;;;;;3.08;1.40;;;;;;;15.03;56.02;101477.53;5052997;28;20163;-74
2022/09/02 06:09:35;;;;;;;6.10;1.50;;;;;;;15.08;55.49;101471.28;5052450;28;20107;-74
2022/09/02 06:12:01;;;;;;;3.10;1.50;;;;;;;15.12;55.53;101467.66;5051396;28;20053;-74
2022/09/02 06:14:26;;;;;;;6.38;1.63;;;;;;;15.17;55.48;101463.13;5051252;28;20091;-74
2022/09/02 06:16:54;;;;;;;4.32;1.40;;;;;;;15.21;55.14;101467.31;5052917;28;20117;-73
2022/09/02 06:19:20;;;;;;;4.30;1.40;;;;;;;15.24;55.58;101475.09;5051101;28;20025;-74
2022/09/02 06:21:46;;;;;;;2.58;1.50;;;;;;;15.29;55.40;101478.41;5034971;28;20349;-74
2022/09/02 06:24:12;;;;;;;4.10;1.67;;;;;;;15.31;54.78;101475.72;5052968;28;20032;-74
2022/09/02 06:26:39;;;;;;;5.75;1.50;;;;;;;15.35;55.16;101471.25;5052171;28;20044;-74
2022/09/02 06:29:05;;;;;;;3.70;1.60;;;;;;;15.37;54.90;101469.44;5051756;28;20055;-74
2022/09/02 06:31:31;;;;;;;5.97;1.58;;;;;;;15.42;54.58;101477.97;5052594;28;20459;-74
2022/09/02 06:33:58;;;;;;;3.10;1.38;;;;;;;15.46;55.32;101474.31;5052689;28;20020;-74
2022/09/02 06:36:26;;;;;;;5.70;1.65;;;;;;;15.49;54.79;101468.97;5051842;28;20530;-74
2022/09/02 06:38:54;;;;;;;3.15;1.50;;;;;;;15.53;55.01;101470.59;5051018;28;20031;-74
2022/09/02 06:41:22;;;;;;;5.97;1.58;;;;;;;15.55;54.67;101463.50;5052679;28;20028;-74
2022/09/02 06:43:49;;;;;;;6.68;1.60;;;;;;;15.59;54.83;101462.47;5052622;28;20021;-74
2022/09/02 06:46:22;;;;;;;3.10;1.45;;;;;;;15.63;54.64;101461.44;5051363;28;20105;-74
2022/09/02 06:48:48;;;;;;;5.35;1.50;;;;;;;15.68;55.07;101456.03;5050803;28;20020;-74
2022/09/02 06:51:27;;;;;;;3.00;1.67;;;;;;;15.74;54.47;101462.81;5052438;28;20032;-74
2022/09/02 06:53:52;;;;;;;3.13;1.60;;;;;;;15.77;54.55;101463.56;5051532;28;20031;-74
2022/09/02 06:56:17;;;;;;;4.32;1.70;;;;;;;15.82;54.36;101449.41;5051698;28;20025;-74
2022/09/02 06:58:45;;;;;;;2.92;1.60;;;;;;;15.87;55.04;101458.00;5050280;28;20027;-74
2022/09/02 07:01:20;;;;;;;4.82;1.60;;;;;;;15.93;55.01;101453.34;5051615;28;20025;-74
2022/09/02 07:06:35;;;;;;;4.85;1.50;;;;;;;16.06;54.65;101452.88;5049802;28;20043;-74
2022/09/02 07:09:00;;;;;;;4.78;1.92;;;;;;;16.13;53.92;101454.34;5051142;28;20025;-74
2022/09/02 07:11:26;;;;;;;3.80;1.70;;;;;;;16.17;54.13;101452.47;5052109;28;20086;-74
2022/09/02 07:13:51;;;;;;;4.32;1.50;;;;;;;16.20;53.92;101447.97;5050119;28;20504;-74
2022/09/02 07:16:17;;;;;;;2.60;1.50;;;;;;;16.25;53.51;101442.53;5051561;28;20032;-74
2022/09/02 07:18:43;;;;;;;6.45;1.65;;;;;;;16.30;53.86;101448.44;5051736;28;20043;-74
2022/09/02 07:21:09;;;;;;;3.47;1.58;;;;;;;16.35;53.79;101440.38;5050522;28;20060;-74
2022/09/02 07:23:35;;;;;;;5.68;1.80;;;;;;;16.40;55.09;101438.41;5049447;28;20023;-74
2022/09/02 07:26:00;;;;;;;2.58;1.60;;;;;;;16.46;53.79;101440.78;5050461;28;20021;-74
2022/09/02 07:28:26;;;;;;;3.13;1.73;;;;;;;16.51;54.38;101444.09;5049513;28;20051;-74
2022/09/02 07:30:54;;;;;;;5.57;1.60;;;;;;;16.57;53.58;101445.59;5048706;28;20484;-74
2022/09/02 07:33:19;;;;;;;4.63;1.70;;;;;;;16.63;53.35;101447.13;5051761;28;20149;-74
2022/09/02 07:35:45;;;;;;;4.90;1.85;;;;;;;16.67;53.98;101438.19;5051852;28;20779;-74
2022/09/02 07:38:11;;;;;;;5.45;1.80;;;;;;;16.74;52.95;101434.38;5050953;28;20116;-74
2022/09/02 07:40:38;;;;;;;3.55;1.40;;;;;;;16.80;53.37;101433.28;5042342;28;20096;-76
2022/09/02 07:43:05;;;;;;;3.40;1.70;;;;;;;16.87;53.81;101433.88;5048039;28;20023;-75
2022/09/02 07:45:31;;;;;;;3.30;2.00;;;;;;;16.94;53.11;101435.31;5033007;28;20059;-76
2022/09/02 07:47:57;;;;;;;2.90;1.52;;;;;;;17.01;53.07;101431.53;5042199;28;20444;-76
2022/09/02 07:50:25;;;;;;;9.18;1.67;;;;;;;17.07;53.68;101439.16;5046440;28;20099;-76
2022/09/02 07:52:52;;;;;;;3.70;1.80;;;;;;;17.13;52.50;101441.50;5046754;28;20079;-75
2022/09/02 07:55:17;;;;;;;4.10;1.70;;;;;;;17.19;52.51;101434.28;5046601;28;20043;-76
2022/09/02 07:57:44;;;;;;;13.40;1.88;;;;;;;17.26;53.04;101435.69;5047784;28;20103;-76
2022/09/02 08:00:12;;;;;;;5.55;1.60;;;;;;;17.31;52.87;101438.97;5045492;28;20025;-76
2022/09/02 08:02:37;;;;;;;3.85;1.73;;;;;;;17.38;52.32;101435.16;5032129;28;20029;-75
2022/09/02 08:05:03;;;;;;;4.75;1.75;;;;;;;17.44;52.00;101434.88;5046378;28;20554;-76
2022/09/02 08:07:29;;;;;;;4.65;1.70;;;;;;;17.50;52.08;101435.53;5050298;28;20040;-75
2022/09/02 08:09:54;;;;;;;2.83;1.65;;;;;;;17.56;52.05;101437.88;5051838;28;20030;-76
2022/09/02 08:12:19;;;;;;;3.90;1.70;;;;;;;17.64;53.00;101430.47;5048703;28;20055;-75
2022/09/02 08:14:44;;;;;;;3.20;1.70;;;;;;;17.70;52.23;101424.94;5050692;28;20385;-76
2022/09/02 08:17:10;;;;;;;4.47;1.83;;;;;;;17.79;53.36;101428.06;5045856;28;20025;-76
2022/09/02 08:19:35;;;;;;;2.85;1.70;;;;;;;17.87;52.09;101431.19;5045739;28;21675;-76
2022/09/02 08:22:05;;;;;;;5.93;1.80;;;;;;;17.93;51.91;101428.28;5045029;28;20025;-76
2022/09/02 08:24:31;;;;;;;3.33;1.60;;;;;;;18.02;52.21;101430.50;5050853;28;20101;-76
2022/09/02 08:26:59;;;;;;;2.67;1.80;;;;;;;18.11;51.54;101420.44;5047786;28;20044;-76
2022/09/02 08:29:24;;;;;;;4.22;1.92;;;;;;;18.19;51.35;101420.94;5047318;28;20533;-76
2022/09/02 08:31:49;;;;;;;2.88;1.48;;;;;;;18.31;52.24;101415.06;5046050;28;20052;-76
2022/09/02 08:34:15;;;;;;;3.30;1.67;;;;;;;18.42;51.24;101414.53;5047519;28;20398;-76
2022/09/02 08:36:42;;;;;;;3.10;1.70;;;;;;;18.55;51.71;101408.63;5045952;28;20021;-76
2022/09/02 08:39:08;;;;;;;5.25;1.77;;;;;;;18.68;52.23;101414.16;5051051;28;20029;-76
2022/09/02 08:42:06;;;;;;;4.88;2.17;;;;;;;18.77;51.38;101405.78;5048608;28;20115;-76
2022/09/02 08:44:35;;;;;;;5.18;1.80;;;;;;;18.89;50.69;101404.28;5044767;28;20111;-76
2022/09/02 08:47:03;;;;;;;5.72;2.00;;;;;;;18.99;50.75;101402.03;5044101;28;20284;-75
2022/09/02 08:49:44;;;;;;;6.03;2.13;;;;;;;19.09;50.00;101395.38;5041650;28;20033;-76
2022/09/02 08:52:19;;;;;;;4.63;1.65;;;;;;;19.20;49.71;101398.28;5044221;28;20029;-76
2022/09/02 08:54:56;;;;;;;3.05;1.65;;;;;;;19.32;49.84;101404.69;5046889;28;20040;-76
2022/09/02 08:57:26;;;;;;;5.60;2.10;;;;;;;19.43;49.76;101398.84;5047127;28;20037;-76
2022/09/02 08:59:54;;;;;;;2.50;1.80;;;;;;;19.53;48.42;101402.66;5041942;28;20032;-76
2022/09/02 09:02:20;;;;;;;5.60;1.92;;;;;;;19.63;48.45;101399.53;5046454;28;20129;-76
2022/09/02 09:05:11;;;;;;;7.05;2.30;;;;;;;19.72;48.60;101399.00;5040924;28;20112;-76
2022/09/02 09:07:43;;;;;;;4.63;2.13;;;;;;;19.82;48.08;101402.84;5041021;28;20036;-76
2022/09/02 09:10:14;;;;;;;4.45;2.13;;;;;;;19.93;48.16;101401.44;5043345;28;20476;-76
2022/09/02 09:13:11;;;;;;;3.97;2.30;;;;;;;20.04;48.80;101404.28;5043135;28;20021;-76
2022/09/02 09:15:50;;;;;;;4.60;2.03;;;;;;;20.16;47.78;101408.03;5045605;28;20095;-76
2022/09/02 09:18:19;;;;;;;5.70;2.00;;;;;;;20.24;47.31;101399.66;5043782;28;20025;-76
2022/09/02 09:20:45;;;;;;;4.28;2.10;;;;;;;20.32;46.82;101400.94;5028715;28;20041;-76
2022/09/02 09:23:17;;;;;;;5.35;2.10;;;;;;;20.42;47.87;101393.31;5044953;28;20082;-76
2022/09/02 09:25:46;;;;;;;5.65;2.00;;;;;;;20.51;46.93;101393.69;5045436;28;20040;-76
2022/09/02 09:28:11;;;;;;;4.75;2.30;;;;;;;20.57;46.24;101394.22;5041174;28;20037;-76
2022/09/02 09:30:38;;;;;;;5.88;2.38;;;;;;;20.61;45.51;101392.22;5044178;28;20045;-77
2022/09/02 09:33:04;;;;;;;4.65;2.38;;;;;;;20.68;45.80;101388.25;5045052;28;20424;-77
2022/09/02 09:35:51;;;;;;;6.30;2.42;;;;;;;20.77;46.54;101393.03;5047324;28;20496;-76
2022/09/02 09:38:28;;;;;;;6.05;2.22;;;;;;;20.86;45.60;101391.63;5045461;28;20029;-76
2022/09/02 09:41:14;;;;;;;4.72;2.45;;;;;;;20.95;46.09;101384.06;5045074;28;20025;-76
2022/09/02 09:43:40;;;;;;;5.10;2.45;;;;;;;21.02;44.79;101386.25;5045536;28;20131;-76
2022/09/02 09:46:28;;;;;;;5.95;2.70;;;;;;;21.09;46.02;101381.44;5042353;28;20524;-76
2022/09/02 09:48:53;;;;;;;5.30;2.50;;;;;;;21.15;44.21;101385.50;5044040;28;20029;-76
2022/09/02 09:51:19;;;;;;;6.45;2.50;;;;;;;21.20;44.39;101383.41;5044745;28;21612;-77
2022/09/02 09:53:45;;;;;;;4.55;2.30;;;;;;;21.26;44.24;101377.75;5044479;28;20028;-77
2022/09/02 09:56:13;;;;;;;5.00;2.20;;;;;;;21.32;44.85;101377.38;5042363;28;20108;-76
2022/09/02 09:58:38;;;;;;;5.93;2.40;;;;;;;21.37;44.67;101377.06;5040323;28;20032;-77
2022/09/02 10:01:31;;;;;;;4.38;2.40;;;;;;;21.45;45.32;101374.78;5042874;28;20036;-76
2022/09/02 10:04:21;;;;;;;5.38;2.20;;;;;;;21.53;45.25;101369.00;5037607;28;20120;-77
2022/09/02 10:06:47;;;;;;;4.18;1.90;;;;;;;21.64;45.33;101368.34;5039699;28;20033;-76
2022/09/02 10:09:13;;;;;;;6.28;2.40;;;;;;;21.75;45.58;101365.00;5036506;28;20086;-76
2022/09/02 10:11:52;;;;;;;5.05;2.28;;;;;;;21.82;43.36;101369.78;5043156;28;20029;-77
2022/09/02 10:14:17;;;;;;;3.83;2.30;;;;;;;21.89;44.51;101364.09;5039923;28;20094;-77
2022/09/02 10:16:55;;;;;;;4.82;1.77;;;;;;;21.96;45.04;101360.97;5040169;28;20571;-77
2022/09/02 10:19:33;;;;;;;4.72;2.10;;;;;;;22.04;43.40;101359.59;5044857;28;20040;-76
2022/09/02 10:22:13;;;;;;;4.30;1.90;;;;;;;22.11;43.99;101358.22;5038123;28;20143;-76
2022/09/02 10:24:50;;;;;;;3.47;1.67;;;;;;;22.21;44.33;101358.47;5037352;28;20029;-76
2022/09/02 10:27:23;;;;;;;3.60;1.88;;;;;;;22.20;42.10;101347.03;5038782;28;20064;-76
2022/09/02 10:30:18;;;;;;;4.15;1.60;;;;;;;22.22;41.89;101344.28;5028694;28;20028;-77
2022/09/02 10:33:04;;;;;;;5.85;1.60;;;;;;;22.25;43.24;101350.19;5011398;28;20055;-77
2022/09/02 10:35:32;;;;;;;3.78;1.50;;;;;;;22.27;41.58;101336.88;5026201;28;20380;-77
2022/09/02 10:38:13;;;;;;;4.65;1.58;;;;;;;22.29;42.36;101341.09;5025934;28;20057;-77
2022/09/02 10:40:46;;;;;;;4.10;1.70;;;;;;;22.32;40.97;101333.91;5026849;28;20109;-77
2022/09/02 10:43:33;;;;;;;3.30;1.67;;;;;;;22.34;42.53;101337.31;5031632;28;20029;-76
2022/09/02 10:46:00;;;;;;;2.63;1.58;;;;;;;22.38;41.04;101333.47;5031550;28;20024;-77
2022/09/02 10:48:27;;;;;;;4.10;1.33;;;;;;;22.42;41.84;101337.63;5030356;28;20029;-77
2022/09/02 10:51:02;;;;;;;2.40;1.50;;;;;;;22.47;41.40;101329.38;5031983;28;20063;-77
2022/09/02 10:53:38;;;;;;;5.35;1.50;;;;;;;22.51;41.39;101330.84;5031716;28;20051;-77
2022/09/02 10:56:20;;;;;;;4.90;1.48;;;;;;;22.57;41.35;101333.94;5022528;28;20388;-77
2022/09/02 10:59:04;;;;;;;3.83;1.60;;;;;;;22.61;41.10;101326.63;5023984;28;20115;-77
2022/09/02 11:01:48;;;;;;;3.90;1.33;;;;;;;22.63;39.97;101322.03;5022427;28;20029;-77
2022/09/02 11:04:43;;;;;;;2.97;1.50;;;;;;;22.65;39.71;101320.13;5018050;28;20025;-77
2022/09/02 11:07:13;;;;;;;3.83;1.40;;;;;;;22.67;38.26;101320.06;5020387;28;20026;-77
2022/09/02 11:09:55;;;;;;;4.22;1.40;;;;;;;22.71;40.50;101311.78;5022987;28;20487;-77
2022/09/02 11:12:24;;;;;;;3.20;1.30;;;;;;;22.74;40.43;101313.34;5019342;28;20480;-77
2022/09/02 11:15:00;;;;;;;2.55;1.45;;;;;;;22.77;40.05;101315.78;5021981;28;20097;-77
2022/09/02 11:17:43;;;;;;;5.00;1.65;;;;;;;22.77;37.80;101309.66;5022140;28;20033;-77
2022/09/02 11:20:11;;;;;;;3.40;1.60;;;;;;;22.78;39.25;101300.75;5023956;28;20484;-77
2022/09/02 11:22:54;;;;;;;1.67;1.30;;;;;;;22.82;39.89;101300.41;5022525;28;20033;-77
2022/09/02 11:25:26;;;;;;;3.40;1.40;;;;;;;22.84;38.14;101292.31;5024687;28;20481;-77
2022/09/02 11:28:00;;;;;;;2.58;1.20;;;;;;;22.89;36.74;101296.34;5020009;28;20476;-77
2022/09/02 11:30:51;;;;;;;3.10;1.38;;;;;;;22.94;39.06;101293.38;5023412;28;20049;-77
2022/09/02 11:33:22;;;;;;;2.10;1.30;;;;;;;22.99;37.73;101285.09;5042928;28;20029;-77